createdAt,value
2016-12-26T00:00:03.588Z,30.59
2016-12-26T00:01:03.947Z,30.69
2016-12-26T00:02:03.649Z,30.59
2016-12-26T00:03:03.663Z,30.4
2016-12-26T00:04:03.608Z,30.49
2016-12-26T00:05:04.468Z,30.38
2016-12-26T00:06:03.309Z,30.59
2016-12-26T00:07:03.679Z,30.49
2016-12-26T00:08:03.633Z,30.4
2016-12-26T00:09:03.330Z,30.69
2016-12-26T00:10:03.334Z,30.3
2016-12-26T00:11:03.396Z,30.21
2016-12-26T00:12:03.396Z,30.4
2016-12-26T00:13:03.352Z,30.49
2016-12-26T00:14:03.359Z,30.4
2016-12-26T00:15:03.729Z,30.79
2016-12-26T00:16:04.571Z,30.29
2016-12-26T00:17:03.691Z,30.79
2016-12-26T00:18:03.746Z,30.79
2016-12-26T00:19:03.700Z,30.4
2016-12-26T00:20:03.708Z,30.79
2016-12-26T00:21:03.715Z,30.59
2016-12-26T00:22:03.773Z,30.69
2016-12-26T00:23:03.727Z,30.69
2016-12-26T00:24:03.780Z,30.67
2016-12-26T00:25:03.428Z,30.88
2016-12-26T00:26:04.092Z,30.79
2016-12-26T00:27:04.652Z,30.77
2016-12-26T00:28:03.756Z,30.3
2016-12-26T00:29:03.762Z,30.88
2016-12-26T00:30:03.768Z,30.48
2016-12-26T00:31:03.512Z,30.59
2016-12-26T00:32:03.516Z,30.87
2016-12-26T00:33:03.837Z,30.59
2016-12-26T00:34:03.791Z,30.79
2016-12-26T00:35:03.487Z,30.4
2016-12-26T00:36:03.874Z,30.88
2016-12-26T00:37:03.494Z,30.88
2016-12-26T00:38:04.924Z,30.88
2016-12-26T00:39:03.507Z,30.4
2016-12-26T00:40:03.932Z,30.88
2016-12-26T00:41:03.835Z,30.59
2016-12-26T00:42:03.942Z,30.79
2016-12-26T00:43:03.533Z,30.58
2016-12-26T00:44:03.905Z,30.48
2016-12-26T00:45:03.909Z,30.67
2016-12-26T00:46:03.870Z,30.3
2016-12-26T00:47:03.924Z,30.67
2016-12-26T00:48:03.618Z,30.58
2016-12-26T00:49:04.986Z,30.69
2016-12-26T00:50:03.575Z,30.4
2016-12-26T00:51:03.895Z,30.48
2016-12-26T00:52:03.900Z,30.49
2016-12-26T00:53:03.692Z,30.38
2016-12-26T00:54:03.914Z,30.79
2016-12-26T00:55:03.920Z,30.87
2016-12-26T00:56:03.927Z,30.21
2016-12-26T00:57:03.981Z,30.38
2016-12-26T00:58:03.986Z,30.67
2016-12-26T00:59:03.946Z,30.48
2016-12-26T01:00:05.002Z,30.48
2016-12-26T01:01:04.005Z,30.98
2016-12-26T01:02:03.648Z,30.88
2016-12-26T01:03:03.657Z,30.67
2016-12-26T01:04:04.024Z,30.58
2016-12-26T01:05:03.719Z,30.77
2016-12-26T01:06:03.673Z,30.79
2016-12-26T01:07:03.991Z,30.58
2016-12-26T01:08:04.047Z,30.38
2016-12-26T01:09:03.694Z,30.58
2016-12-26T01:10:04.110Z,30.58
2016-12-26T01:11:03.702Z,30.59
2016-12-26T01:12:04.020Z,30.59
2016-12-26T01:13:04.030Z,30.77
2016-12-26T01:14:03.720Z,30.69
2016-12-26T01:15:03.730Z,30.79
2016-12-26T01:16:03.784Z,30.69
2016-12-26T01:17:04.154Z,30.4
2016-12-26T01:18:04.058Z,30.77
2016-12-26T01:19:03.800Z,30.67
2016-12-26T01:20:04.121Z,30.77
2016-12-26T01:21:04.125Z,30.77
2016-12-26T01:22:05.182Z,30.38
2016-12-26T01:23:03.775Z,30.59
2016-12-26T01:24:04.147Z,30.79
2016-12-26T01:25:04.102Z,30.67
2016-12-26T01:26:04.159Z,30.77
2016-12-26T01:27:04.111Z,30.77
2016-12-26T01:28:18.684Z,30.29
2016-12-26T01:29:03.810Z,30.38
2016-12-26T01:30:03.819Z,30.69
2016-12-26T01:31:04.185Z,30.59
2016-12-26T01:32:03.830Z,30.77
2016-12-26T01:33:05.299Z,30.67
2016-12-26T01:34:03.891Z,30.87
2016-12-26T01:35:04.159Z,30.79
2016-12-26T01:36:04.265Z,30.59
2016-12-26T01:37:03.910Z,30.58
2016-12-26T01:38:04.230Z,30.19
2016-12-26T01:39:04.182Z,30.58
2016-12-26T01:40:04.190Z,30.67
2016-12-26T01:41:03.882Z,30.58
2016-12-26T01:42:04.231Z,30.58
2016-12-26T01:43:04.307Z,30.77
2016-12-26T01:44:04.226Z,30.58
2016-12-26T01:45:04.270Z,30.77
2016-12-26T01:46:03.963Z,30.58
2016-12-26T01:47:04.230Z,30.77
2016-12-26T01:48:04.238Z,30.77
2016-12-26T01:49:04.031Z,30.58
2016-12-26T01:50:03.938Z,30.48
2016-12-26T01:51:04.256Z,30.58
2016-12-26T01:52:04.260Z,30.58
2016-12-26T01:53:04.266Z,30.58
2016-12-26T01:54:04.275Z,30.67
2016-12-26T01:55:03.967Z,30.77
2016-12-26T01:56:04.285Z,30.38
2016-12-26T01:57:04.338Z,30.67
2016-12-26T01:58:05.937Z,30.58
2016-12-26T01:59:04.351Z,30.48
2016-12-26T02:00:04.001Z,30.48
2016-12-26T02:01:04.364Z,30.77
2016-12-26T02:02:04.370Z,30.38
2016-12-26T02:03:04.014Z,30.38
2016-12-26T02:04:04.120Z,30.38
2016-12-26T02:05:04.026Z,30.58
2016-12-26T02:06:04.394Z,30.58
2016-12-26T02:07:04.398Z,30.87
2016-12-26T02:08:04.404Z,30.48
2016-12-26T02:09:04.353Z,30.48
2016-12-26T02:10:04.416Z,30.38
2016-12-26T02:11:04.061Z,30.58
2016-12-26T02:12:04.430Z,30.59
2016-12-26T02:13:04.173Z,30.67
2016-12-26T02:14:04.127Z,30.38
2016-12-26T02:15:04.135Z,30.29
2016-12-26T02:16:04.093Z,30.38
2016-12-26T02:17:05.511Z,30.48
2016-12-26T02:18:04.153Z,30.48
2016-12-26T02:19:04.108Z,30.38
2016-12-26T02:20:04.125Z,30.58
2016-12-26T02:21:04.436Z,30.38
2016-12-26T02:22:04.489Z,30.38
2016-12-26T02:23:04.133Z,30.19
2016-12-26T02:24:04.452Z,30.38
2016-12-26T02:25:04.513Z,30.38
2016-12-26T02:26:04.463Z,30.77
2016-12-26T02:27:04.157Z,30.87
2016-12-26T02:28:19.041Z,30.67
2016-12-26T02:29:04.481Z,30.29
2016-12-26T02:30:04.223Z,30.87
2016-12-26T02:31:04.493Z,30.38
2016-12-26T02:32:04.184Z,30.58
2016-12-26T02:33:04.553Z,30.58
2016-12-26T02:34:04.197Z,30.29
2016-12-26T02:35:04.517Z,30.48
2016-12-26T02:36:04.207Z,30.58
2016-12-26T02:37:04.536Z,30.58
2016-12-26T02:38:04.220Z,30.38
2016-12-26T02:39:05.401Z,30.38
2016-12-26T02:40:04.332Z,30.77
2016-12-26T02:41:04.551Z,30.58
2016-12-26T02:42:04.295Z,30.77
2016-12-26T02:43:04.300Z,30.58
2016-12-26T02:44:04.255Z,30.4
2016-12-26T02:45:04.311Z,30.48
2016-12-26T02:46:04.267Z,30.48
2016-12-26T02:47:04.278Z,30.58
2016-12-26T02:48:04.642Z,30.58
2016-12-26T02:49:04.647Z,30.96
2016-12-26T02:50:04.339Z,30.87
2016-12-26T02:51:04.346Z,30.67
2016-12-26T02:52:04.666Z,30.67
2016-12-26T02:53:04.670Z,30.67
2016-12-26T02:54:04.626Z,30.38
2016-12-26T02:55:04.685Z,30.48
2016-12-26T02:56:04.329Z,30.77
2016-12-26T02:57:04.381Z,30.38
2016-12-26T02:58:19.213Z,30.38
2016-12-26T02:59:04.542Z,30.38
2016-12-26T03:00:04.351Z,30.58
2016-12-26T03:01:04.666Z,30.38
2016-12-26T03:02:04.671Z,30.38
2016-12-26T03:03:04.365Z,30.67
2016-12-26T03:04:04.422Z,30.38
2016-12-26T03:05:04.692Z,30.38
2016-12-26T03:06:04.754Z,30.48
2016-12-26T03:07:04.702Z,31.15
2016-12-26T03:08:04.707Z,30.58
2016-12-26T03:09:04.765Z,30.48
2016-12-26T03:10:04.657Z,30.58
2016-12-26T03:11:04.727Z,30.96
2016-12-26T03:12:04.468Z,30.19
2016-12-26T03:13:04.734Z,30.48
2016-12-26T03:14:04.481Z,30.38
2016-12-26T03:15:04.798Z,30.48
2016-12-26T03:16:04.754Z,30.77
2016-12-26T03:17:04.447Z,30.87
2016-12-26T03:18:04.816Z,30.87
2016-12-26T03:19:04.460Z,30.67
2016-12-26T03:20:04.466Z,30.87
2016-12-26T03:21:04.926Z,30.87
2016-12-26T03:22:04.477Z,30.96
2016-12-26T03:23:04.483Z,30.87
2016-12-26T03:24:04.801Z,30.96
2016-12-26T03:25:04.857Z,30.77
2016-12-26T03:26:04.811Z,30.96
2016-12-26T03:27:04.821Z,30.87
2016-12-26T03:28:19.440Z,30.96
2016-12-26T03:29:04.516Z,30.87
2016-12-26T03:30:04.526Z,30.87
2016-12-26T03:31:04.576Z,30.67
2016-12-26T03:32:05.249Z,30.77
2016-12-26T03:33:04.879Z,30.87
2016-12-26T03:34:04.857Z,30.67
2016-12-26T03:35:04.916Z,30.77
2016-12-26T03:36:04.973Z,30.96
2016-12-26T03:37:04.875Z,30.77
2016-12-26T03:38:04.885Z,30.87
2016-12-26T03:39:04.938Z,30.67
2016-12-26T03:40:04.895Z,30.96
2016-12-26T03:41:04.951Z,30.87
2016-12-26T03:42:04.594Z,30.87
2016-12-26T03:43:05.161Z,30.87
2016-12-26T03:44:04.969Z,30.87
2016-12-26T03:45:04.974Z,30.87
2016-12-26T03:46:04.618Z,30.87
2016-12-26T03:47:04.935Z,30.67
2016-12-26T03:48:04.947Z,30.87
2016-12-26T03:49:04.998Z,30.77
2016-12-26T03:50:05.054Z,30.77
2016-12-26T03:51:04.959Z,30.87
2016-12-26T03:52:04.968Z,30.67
2016-12-26T03:53:05.071Z,30.67
2016-12-26T03:54:05.528Z,30.87
2016-12-26T03:55:04.726Z,30.87
2016-12-26T03:56:05.041Z,30.48
2016-12-26T03:57:04.996Z,30.77
2016-12-26T03:58:05.054Z,30.96
2016-12-26T03:59:05.061Z,30.87
2016-12-26T04:00:04.701Z,30.58
2016-12-26T04:01:04.756Z,30.87
2016-12-26T04:02:05.077Z,30.87
2016-12-26T04:03:04.720Z,30.96
2016-12-26T04:04:04.773Z,30.96
2016-12-26T04:05:05.883Z,30.87
2016-12-26T04:06:05.049Z,30.29
2016-12-26T04:07:05.107Z,30.29
2016-12-26T04:08:04.799Z,30.87
2016-12-26T04:09:05.120Z,30.96
2016-12-26T04:10:05.127Z,30.29
2016-12-26T04:11:05.129Z,30.77
2016-12-26T04:12:05.087Z,30.77
2016-12-26T04:13:04.780Z,30.96
2016-12-26T04:14:05.098Z,30.96
2016-12-26T04:15:04.790Z,30.77
2016-12-26T04:16:04.796Z,30.67
2016-12-26T04:17:04.854Z,30.96
2016-12-26T04:18:05.207Z,30.96
2016-12-26T04:19:04.865Z,30.87
2016-12-26T04:20:04.819Z,30.67
2016-12-26T04:21:04.824Z,30.87
2016-12-26T04:22:05.195Z,30.87
2016-12-26T04:23:04.892Z,30.58
2016-12-26T04:24:05.257Z,30.77
2016-12-26T04:25:05.160Z,30.77
2016-12-26T04:26:04.855Z,30.87
2016-12-26T04:27:04.935Z,30.58
2016-12-26T04:28:05.232Z,30.87
2016-12-26T04:29:05.322Z,30.96
2016-12-26T04:30:05.242Z,30.87
2016-12-26T04:31:05.250Z,30.29
2016-12-26T04:32:04.942Z,30.67
2016-12-26T04:33:05.209Z,30.58
2016-12-26T04:34:05.215Z,30.87
2016-12-26T04:35:05.222Z,30.58
2016-12-26T04:36:04.915Z,30.38
2016-12-26T04:37:04.971Z,30.77
2016-12-26T04:38:05.240Z,30.96
2016-12-26T04:39:05.347Z,30.77
2016-12-26T04:40:05.850Z,30.58
2016-12-26T04:41:05.256Z,30.67
2016-12-26T04:42:04.954Z,30.87
2016-12-26T04:43:05.007Z,30.87
2016-12-26T04:44:05.013Z,30.77
2016-12-26T04:45:05.019Z,30.77
2016-12-26T04:46:05.287Z,30.96
2016-12-26T04:47:04.979Z,30.77
2016-12-26T04:48:05.348Z,30.87
2016-12-26T04:49:04.993Z,30.77
2016-12-26T04:50:05.049Z,31.06
2016-12-26T04:51:05.767Z,30.87
2016-12-26T04:52:05.329Z,30.67
2016-12-26T04:53:05.331Z,31.06
2016-12-26T04:54:05.023Z,30.87
2016-12-26T04:55:05.075Z,30.77
2016-12-26T04:56:05.384Z,30.96
2016-12-26T04:57:05.039Z,30.87
2016-12-26T04:58:05.359Z,30.77
2016-12-26T04:59:05.414Z,30.96
2016-12-26T05:00:05.063Z,30.96
2016-12-26T05:01:05.377Z,30.77
2016-12-26T05:02:05.669Z,31.06
2016-12-26T05:03:05.126Z,30.87
2016-12-26T05:04:05.448Z,30.77
2016-12-26T05:05:05.088Z,30.67
2016-12-26T05:06:05.461Z,30.87
2016-12-26T05:07:05.415Z,30.77
2016-12-26T05:08:05.468Z,30.96
2016-12-26T05:09:05.111Z,31.06
2016-12-26T05:10:05.478Z,31.15
2016-12-26T05:11:05.484Z,30.96
2016-12-26T05:12:05.443Z,30.96
2016-12-26T05:13:06.149Z,30.96
2016-12-26T05:14:05.139Z,30.77
2016-12-26T05:15:05.459Z,30.67
2016-12-26T05:16:05.468Z,30.87
2016-12-26T05:17:05.523Z,30.96
2016-12-26T05:18:05.482Z,30.77
2016-12-26T05:19:05.222Z,30.67
2016-12-26T05:20:05.486Z,30.67
2016-12-26T05:21:05.183Z,30.58
2016-12-26T05:22:05.189Z,30.87
2016-12-26T05:23:05.245Z,30.77
2016-12-26T05:24:05.901Z,30.87
2016-12-26T05:25:05.257Z,30.67
2016-12-26T05:26:05.210Z,30.87
2016-12-26T05:27:05.531Z,30.96
2016-12-26T05:28:20.103Z,31.06
2016-12-26T05:29:05.282Z,30.87
2016-12-26T05:30:05.286Z,30.77
2016-12-26T05:31:05.292Z,30.38
2016-12-26T05:32:05.618Z,30.77
2016-12-26T05:33:05.617Z,30.87
2016-12-26T05:34:05.311Z,30.87
2016-12-26T05:35:06.018Z,30.96
2016-12-26T05:36:05.635Z,30.58
2016-12-26T05:37:05.329Z,30.77
2016-12-26T05:38:05.288Z,30.67
2016-12-26T05:39:05.601Z,30.67
2016-12-26T05:40:05.296Z,30.87
2016-12-26T05:41:05.665Z,30.58
2016-12-26T05:42:05.306Z,30.87
2016-12-26T05:43:05.675Z,30.77
2016-12-26T05:44:05.633Z,30.77
2016-12-26T05:45:05.690Z,30.67
2016-12-26T05:46:06.795Z,30.87
2016-12-26T05:47:05.338Z,30.77
2016-12-26T05:48:05.707Z,30.48
2016-12-26T05:49:05.662Z,30.96
2016-12-26T05:50:05.406Z,30.67
2016-12-26T05:51:05.673Z,30.77
2016-12-26T05:52:05.680Z,30.96
2016-12-26T05:53:05.984Z,30.67
2016-12-26T05:54:05.690Z,30.77
2016-12-26T05:55:05.698Z,30.67
2016-12-26T05:56:05.703Z,30.77
2016-12-26T05:57:06.581Z,30.77
2016-12-26T05:58:06.002Z,30.96
2016-12-26T05:59:05.772Z,30.58
2016-12-26T06:00:05.462Z,30.87
2016-12-26T06:01:05.784Z,30.77
2016-12-26T06:02:05.427Z,30.67
2016-12-26T06:03:05.746Z,30.77
2016-12-26T06:04:05.485Z,30.87
2016-12-26T06:05:05.758Z,30.96
2016-12-26T06:06:05.814Z,31.06
2016-12-26T06:07:05.768Z,30.77
2016-12-26T06:08:06.878Z,30.67
2016-12-26T06:09:05.778Z,30.96
2016-12-26T06:10:05.473Z,30.87
2016-12-26T06:11:05.477Z,30.96
2016-12-26T06:12:05.484Z,30.67
2016-12-26T06:13:05.885Z,30.96
2016-12-26T06:14:05.811Z,30.67
2016-12-26T06:15:05.814Z,30.96
2016-12-26T06:16:05.870Z,30.96
2016-12-26T06:17:05.828Z,30.96
2016-12-26T06:18:05.832Z,30.96
2016-12-26T06:19:06.475Z,30.96
2016-12-26T06:20:05.893Z,31.25
2016-12-26T06:21:05.538Z,30.77
2016-12-26T06:22:05.593Z,31.15
2016-12-26T06:23:05.598Z,31.15
2016-12-26T06:24:05.920Z,31.06
2016-12-26T06:25:05.563Z,30.96
2016-12-26T06:26:05.616Z,31.06
2016-12-26T06:27:05.884Z,30.96
2016-12-26T06:28:05.946Z,30.67
2016-12-26T06:29:05.999Z,30.96
2016-12-26T06:30:06.595Z,31.06
2016-12-26T06:31:05.595Z,31.06
2016-12-26T06:32:05.652Z,31.06
2016-12-26T06:33:05.969Z,30.96
2016-12-26T06:34:05.717Z,30.96
2016-12-26T06:35:06.031Z,30.96
2016-12-26T06:36:05.624Z,31.15
2016-12-26T06:37:05.971Z,30.77
2016-12-26T06:38:05.687Z,31.06
2016-12-26T06:39:05.954Z,31.06
2016-12-26T06:40:06.012Z,31.06
2016-12-26T06:41:05.701Z,31.15
2016-12-26T06:42:05.710Z,30.96
2016-12-26T06:43:05.714Z,30.96
2016-12-26T06:44:05.670Z,30.96
2016-12-26T06:45:05.991Z,30.96
2016-12-26T06:46:05.684Z,31.15
2016-12-26T06:47:06.002Z,31.06
2016-12-26T06:48:05.695Z,30.96
2016-12-26T06:49:06.063Z,30.96
2016-12-26T06:50:06.020Z,30.87
2016-12-26T06:51:06.027Z,31.15
2016-12-26T06:52:05.717Z,31.15
2016-12-26T06:53:05.726Z,31.15
2016-12-26T06:54:05.829Z,31.15
2016-12-26T06:55:06.051Z,31.06
2016-12-26T06:56:06.106Z,30.96
2016-12-26T06:57:05.847Z,31.15
2016-12-26T06:58:05.757Z,31.06
2016-12-26T06:59:05.759Z,31.15
2016-12-26T07:00:06.078Z,30.96
2016-12-26T07:01:05.779Z,30.96
2016-12-26T07:02:06.141Z,31.15
2016-12-26T07:03:05.783Z,31.06
2016-12-26T07:04:05.842Z,30.96
2016-12-26T07:05:06.157Z,31.06
2016-12-26T07:06:05.851Z,31.15
2016-12-26T07:07:06.173Z,31.15
2016-12-26T07:08:05.811Z,30.87
2016-12-26T07:09:06.131Z,31.25
2016-12-26T07:10:05.824Z,31.06
2016-12-26T07:11:05.831Z,30.96
2016-12-26T07:12:06.034Z,31.06
2016-12-26T07:13:05.842Z,30.96
2016-12-26T07:14:06.210Z,31.06
2016-12-26T07:15:06.215Z,31.06
2016-12-26T07:16:06.172Z,31.15
2016-12-26T07:17:06.176Z,30.96
2016-12-26T07:18:06.184Z,30.96
2016-12-26T07:19:06.190Z,31.06
2016-12-26T07:20:05.881Z,31.06
2016-12-26T07:21:06.301Z,30.96
2016-12-26T07:22:05.893Z,31.06
2016-12-26T07:23:06.050Z,31.06
2016-12-26T07:24:06.216Z,30.96
2016-12-26T07:25:05.964Z,31.06
2016-12-26T07:26:05.921Z,30.87
2016-12-26T07:27:06.236Z,30.87
2016-12-26T07:28:20.806Z,30.77
2016-12-26T07:29:06.250Z,30.48
2016-12-26T07:30:06.457Z,30.11
2016-12-26T07:31:06.259Z,30.01
2016-12-26T07:32:06.364Z,30.11
2016-12-26T07:33:06.270Z,29.25
2016-12-26T07:34:06.313Z,28.87
2016-12-26T07:35:06.023Z,29.17
2016-12-26T07:36:05.985Z,28.88
2016-12-26T07:37:05.977Z,28.69
2016-12-26T07:38:06.036Z,28.5
2016-12-26T07:39:06.358Z,28.13
2016-12-26T07:40:06.364Z,28.31
2016-12-26T07:41:06.371Z,28.13
2016-12-26T07:42:06.322Z,28.13
2016-12-26T07:43:06.328Z,27.73
2016-12-26T07:44:06.027Z,27.73
2016-12-26T07:45:06.327Z,27.56
2016-12-26T07:46:06.346Z,27.56
2016-12-26T07:47:06.403Z,27.46
2016-12-26T07:48:06.360Z,27.26
2016-12-26T07:49:06.104Z,27.26
2016-12-26T07:50:06.057Z,27.17
2016-12-26T07:51:06.066Z,26.88
2016-12-26T07:52:06.387Z,26.99
2016-12-26T07:53:06.390Z,26.99
2016-12-26T07:54:06.398Z,26.68
2016-12-26T07:55:06.501Z,27.19
2016-12-26T07:56:06.859Z,26.7
2016-12-26T07:57:06.412Z,26.7
2016-12-26T07:58:21.587Z,26.61
2016-12-26T07:59:06.428Z,26.7
2016-12-26T08:00:06.481Z,26.61
2016-12-26T08:01:06.177Z,26.51
2016-12-26T08:02:06.499Z,26.51
2016-12-26T08:03:06.500Z,26.51
2016-12-26T08:04:06.196Z,26.51
2016-12-26T08:05:06.463Z,26.62
2016-12-26T08:06:06.474Z,26.41
2016-12-26T08:07:07.216Z,26.42
2016-12-26T08:08:06.219Z,26.51
2016-12-26T08:09:06.891Z,26.31
2016-12-26T08:10:06.494Z,26.31
2016-12-26T08:11:06.239Z,26.23
2016-12-26T08:12:06.507Z,26.42
2016-12-26T08:13:06.564Z,26.42
2016-12-26T08:14:06.208Z,26.42
2016-12-26T08:15:06.531Z,26.23
2016-12-26T08:16:06.534Z,26.52
2016-12-26T08:17:06.540Z,26.42
2016-12-26T08:18:07.405Z,26.21
2016-12-26T08:19:06.290Z,26.32
2016-12-26T08:20:07.196Z,26.42
2016-12-26T08:21:06.253Z,26.51
2016-12-26T08:22:06.570Z,26.42
2016-12-26T08:23:06.578Z,26.32
2016-12-26T08:24:06.320Z,26.52
2016-12-26T08:25:06.594Z,26.32
2016-12-26T08:26:06.648Z,26.23
2016-12-26T08:27:06.703Z,26.32
2016-12-26T08:28:21.176Z,26.32
2016-12-26T08:29:07.514Z,26.72
2016-12-26T08:30:06.622Z,26.32
2016-12-26T08:31:07.329Z,26.23
2016-12-26T08:32:06.324Z,26.42
2016-12-26T08:33:06.643Z,26.52
2016-12-26T08:34:06.651Z,26.32
2016-12-26T08:35:06.391Z,26.23
2016-12-26T08:36:06.347Z,26.32
2016-12-26T08:37:06.728Z,26.42
2016-12-26T08:38:06.669Z,26.42
2016-12-26T08:39:06.682Z,26.52
2016-12-26T08:40:06.693Z,26.23
2016-12-26T08:41:06.745Z,26.32
2016-12-26T08:42:07.654Z,26.9
2016-12-26T08:43:06.710Z,26.52
2016-12-26T08:44:06.713Z,26.32
2016-12-26T08:45:06.720Z,26.14
2016-12-26T08:46:06.464Z,26.23
2016-12-26T08:47:06.737Z,26.42
2016-12-26T08:48:06.476Z,26.23
2016-12-26T08:49:06.750Z,26.42
2016-12-26T08:50:06.490Z,26.62
2016-12-26T08:51:06.761Z,26.23
2016-12-26T08:52:06.506Z,26.72
2016-12-26T08:53:07.925Z,26.72
2016-12-26T08:54:06.832Z,26.62
2016-12-26T08:55:06.478Z,26.52
2016-12-26T08:56:06.895Z,26.32
2016-12-26T08:57:06.487Z,26.32
2016-12-26T08:58:06.545Z,26.23
2016-12-26T08:59:06.503Z,25.95
2016-12-26T09:00:07.671Z,26.14
2016-12-26T09:01:06.564Z,26.04
2016-12-26T09:02:06.835Z,25.85
2016-12-26T09:03:06.526Z,25.95
2016-12-26T09:04:06.847Z,26.25
2016-12-26T09:05:06.905Z,25.85
2016-12-26T09:06:06.861Z,25.66
2016-12-26T09:07:06.552Z,25.85
2016-12-26T09:08:06.975Z,25.76
2016-12-26T09:09:06.880Z,25.95
2016-12-26T09:10:06.624Z,26.05
2016-12-26T09:11:07.331Z,26.05
2016-12-26T09:12:06.587Z,25.85
2016-12-26T09:13:07.006Z,25.67
2016-12-26T09:14:06.699Z,25.48
2016-12-26T09:15:06.608Z,25.47
2016-12-26T09:16:06.925Z,25.29
2016-12-26T09:17:06.626Z,25.38
2016-12-26T09:18:06.676Z,25.47
2016-12-26T09:19:06.947Z,25.19
2016-12-26T09:20:07.005Z,25.19
2016-12-26T09:21:06.968Z,25.38
2016-12-26T09:22:08.228Z,25.48
2016-12-26T09:23:06.710Z,25.38
2016-12-26T09:24:07.569Z,25.58
2016-12-26T09:25:07.035Z,24.99
2016-12-26T09:26:06.682Z,24.72
2016-12-26T09:27:06.737Z,25.1
2016-12-26T09:28:06.747Z,25.3
2016-12-26T09:29:07.065Z,25.1
2016-12-26T09:30:07.022Z,25.19
2016-12-26T09:31:07.027Z,25.09
2016-12-26T09:32:07.082Z,25.2
2016-12-26T09:33:06.730Z,25.19
2016-12-26T09:34:07.046Z,25.29
2016-12-26T09:35:07.858Z,25.01
2016-12-26T09:36:07.064Z,25.29
2016-12-26T09:37:06.805Z,24.99
2016-12-26T09:38:07.128Z,24.72
2016-12-26T09:39:06.823Z,25.01
2016-12-26T09:40:06.877Z,24.72
2016-12-26T09:41:07.196Z,24.82
2016-12-26T09:42:07.105Z,25.01
2016-12-26T09:43:06.796Z,24.91
2016-12-26T09:44:07.116Z,24.72
2016-12-26T09:45:07.125Z,24.91
2016-12-26T09:46:06.819Z,24.91
2016-12-26T09:47:06.824Z,24.91
2016-12-26T09:48:07.147Z,24.82
2016-12-26T09:49:06.989Z,24.62
2016-12-26T09:50:07.164Z,24.62
2016-12-26T09:51:07.265Z,24.62
2016-12-26T09:52:07.224Z,24.62
2016-12-26T09:53:07.181Z,24.62
2016-12-26T09:54:06.922Z,24.62
2016-12-26T09:55:07.197Z,24.62
2016-12-26T09:56:07.200Z,24.72
2016-12-26T09:57:06.896Z,24.72
2016-12-26T09:58:06.899Z,24.52
2016-12-26T09:59:06.959Z,24.62
2016-12-26T10:00:06.918Z,24.52
2016-12-26T10:01:06.973Z,24.62
2016-12-26T10:02:07.291Z,24.43
2016-12-26T10:03:06.986Z,24.33
2016-12-26T10:04:06.945Z,24.52
2016-12-26T10:05:06.999Z,24.23
2016-12-26T10:06:07.267Z,24.52
2016-12-26T10:07:07.276Z,24.43
2016-12-26T10:08:06.971Z,24.43
2016-12-26T10:09:07.343Z,24.33
2016-12-26T10:10:07.298Z,24.33
2016-12-26T10:11:06.991Z,24.52
2016-12-26T10:12:07.048Z,24.52
2016-12-26T10:13:07.320Z,24.23
2016-12-26T10:14:07.066Z,24.05
2016-12-26T10:15:07.021Z,24.05
2016-12-26T10:16:07.340Z,24.34
2016-12-26T10:17:07.446Z,24.44
2016-12-26T10:18:07.354Z,24.15
2016-12-26T10:19:07.365Z,24.15
2016-12-26T10:20:07.105Z,24.34
2016-12-26T10:21:07.429Z,24.05
2016-12-26T10:22:07.433Z,24.24
2016-12-26T10:23:07.440Z,24.24
2016-12-26T10:24:07.134Z,24.44
2016-12-26T10:25:07.091Z,24.44
2016-12-26T10:26:07.411Z,24.15
2016-12-26T10:27:07.469Z,24.72
2016-12-26T10:28:08.114Z,24.63
2016-12-26T10:29:07.174Z,24.52
2016-12-26T10:30:07.128Z,24.34
2016-12-26T10:31:07.132Z,24.15
2016-12-26T10:32:07.190Z,24.63
2016-12-26T10:33:07.198Z,24.52
2016-12-26T10:34:07.467Z,24.63
2016-12-26T10:35:07.475Z,24.52
2016-12-26T10:36:07.223Z,24.54
2016-12-26T10:37:07.488Z,24.24
2016-12-26T10:38:07.183Z,24.24
2016-12-26T10:39:08.092Z,24.05
2016-12-26T10:40:07.562Z,24.54
2016-12-26T10:41:07.618Z,24.34
2016-12-26T10:42:07.212Z,24.44
2016-12-26T10:43:07.582Z,24.34
2016-12-26T10:44:07.639Z,24.24
2016-12-26T10:45:07.231Z,24.54
2016-12-26T10:46:07.289Z,24.44
2016-12-26T10:47:07.659Z,24.63
2016-12-26T10:48:07.618Z,24.54
2016-12-26T10:49:07.624Z,24.24
2016-12-26T10:50:08.334Z,24.44
2016-12-26T10:51:07.617Z,24.24
2016-12-26T10:52:07.281Z,24.44
2016-12-26T10:53:07.337Z,24.05
2016-12-26T10:54:07.608Z,24.05
2016-12-26T10:55:07.310Z,24.26
2016-12-26T10:56:07.313Z,24.05
2016-12-26T10:57:07.682Z,24.15
2016-12-26T10:58:07.639Z,24.05
2016-12-26T10:59:07.431Z,24.15
2016-12-26T11:00:07.387Z,24.44
2016-12-26T11:01:08.400Z,24.05
2016-12-26T11:02:07.717Z,24.15
2016-12-26T11:03:07.724Z,24.15
2016-12-26T11:04:07.417Z,24.16
2016-12-26T11:05:07.376Z,24.54
2016-12-26T11:06:07.695Z,24.34
2016-12-26T11:07:07.439Z,24.54
2016-12-26T11:08:07.399Z,24.16
2016-12-26T11:09:07.717Z,24.15
2016-12-26T11:10:07.412Z,24.05
2016-12-26T11:11:07.732Z,24.44
2016-12-26T11:12:07.423Z,24.34
2016-12-26T11:13:07.534Z,24.54
2016-12-26T11:14:08.155Z,24.44
2016-12-26T11:15:07.448Z,24.15
2016-12-26T11:16:07.817Z,24.15
2016-12-26T11:17:07.826Z,24.24
2016-12-26T11:18:07.470Z,24.24
2016-12-26T11:19:07.841Z,24.34
2016-12-26T11:20:07.485Z,24.34
2016-12-26T11:21:07.853Z,24.34
2016-12-26T11:22:07.814Z,24.44
2016-12-26T11:23:07.869Z,24.34
2016-12-26T11:24:07.513Z,24.44
2016-12-26T11:25:08.072Z,23.95
2016-12-26T11:26:07.528Z,24.15
2016-12-26T11:27:07.534Z,24.44
2016-12-26T11:28:07.855Z,24.34
2016-12-26T11:29:07.860Z,24.24
2016-12-26T11:30:07.607Z,24.05
2016-12-26T11:31:07.563Z,24.34
2016-12-26T11:32:07.624Z,24.34
2016-12-26T11:33:07.627Z,24.15
2016-12-26T11:34:07.951Z,24.44
2016-12-26T11:35:07.965Z,24.63
2016-12-26T11:36:08.349Z,24.54
2016-12-26T11:37:07.918Z,24.54
2016-12-26T11:38:07.616Z,24.34
2016-12-26T11:39:07.722Z,24.63
2016-12-26T11:40:07.989Z,24.54
2016-12-26T11:41:07.636Z,24.06
2016-12-26T11:42:07.644Z,24.44
2016-12-26T11:43:07.964Z,24.54
2016-12-26T11:44:07.971Z,24.44
2016-12-26T11:45:07.715Z,24.63
2016-12-26T11:46:07.722Z,24.15
2016-12-26T11:47:08.384Z,24.34
2016-12-26T11:48:08.051Z,24.34
2016-12-26T11:49:08.009Z,24.15
2016-12-26T11:50:08.017Z,24.15
2016-12-26T11:51:08.021Z,24.24
2016-12-26T11:52:07.716Z,24.44
2016-12-26T11:53:08.085Z,24.24
2016-12-26T11:54:08.149Z,24.34
2016-12-26T11:55:08.102Z,24.34
2016-12-26T11:56:08.060Z,24.54
2016-12-26T11:57:07.801Z,24.05
2016-12-26T11:58:08.660Z,24.16
2016-12-26T11:59:07.767Z,24.45
2016-12-26T12:00:07.827Z,24.34
2016-12-26T12:01:07.782Z,24.34
2016-12-26T12:02:08.151Z,24.34
2016-12-26T12:03:08.111Z,24.44
2016-12-26T12:04:07.803Z,24.24
2016-12-26T12:05:08.177Z,24.44
2016-12-26T12:06:08.180Z,24.44
2016-12-26T12:07:07.876Z,24.34
2016-12-26T12:08:07.859Z,24.54
2016-12-26T12:09:09.306Z,24.34
2016-12-26T12:10:07.850Z,24.44
2016-12-26T12:11:08.216Z,24.54
2016-12-26T12:12:07.917Z,24.15
2016-12-26T12:13:08.233Z,24.16
2016-12-26T12:14:07.976Z,24.15
2016-12-26T12:15:08.204Z,24.45
2016-12-26T12:16:08.206Z,24.45
2016-12-26T12:17:08.263Z,24.44
2016-12-26T12:18:08.321Z,24.44
2016-12-26T12:19:07.964Z,24.24
2016-12-26T12:20:07.924Z,24.34
2016-12-26T12:21:08.243Z,24.63
2016-12-26T12:22:07.935Z,24.34
2016-12-26T12:23:08.259Z,24.54
2016-12-26T12:24:08.312Z,24.15
2016-12-26T12:25:08.009Z,24.35
2016-12-26T12:26:07.965Z,24.26
2016-12-26T12:27:08.026Z,24.24
2016-12-26T12:28:22.860Z,24.55
2016-12-26T12:29:08.352Z,23.86
2016-12-26T12:30:08.357Z,24.44
2016-12-26T12:31:08.051Z,24.44
2016-12-26T12:32:08.011Z,24.34
2016-12-26T12:33:08.017Z,24.54
2016-12-26T12:34:08.441Z,24.34
2016-12-26T12:35:08.477Z,24.54
2016-12-26T12:36:08.486Z,24.54
2016-12-26T12:37:08.098Z,24.54
2016-12-26T12:38:08.367Z,24.54
2016-12-26T12:39:08.475Z,24.63
2016-12-26T12:40:08.381Z,24.44
2016-12-26T12:41:08.441Z,24.34
2016-12-26T12:42:08.135Z,24.15
2016-12-26T12:43:08.148Z,24.54
2016-12-26T12:44:08.512Z,24.24
2016-12-26T12:45:08.419Z,24.34
2016-12-26T12:46:08.115Z,24.44
2016-12-26T12:47:08.482Z,24.73
2016-12-26T12:48:08.441Z,24.63
2016-12-26T12:49:08.498Z,24.73
2016-12-26T12:50:08.147Z,24.63
2016-12-26T12:51:08.512Z,24.44
2016-12-26T12:52:08.159Z,24.54
2016-12-26T12:53:08.212Z,24.54